Time;durP1;ratioP1;P1;durP2;ratioP2;P2;SDS_P1;SDS_P2;PMS_P1;PMS_P2;Temp;Humidity;BMP_temperature;BMP_pressure;BME280_temperature;BME280_humidity;BME280_pressure;Samples;Min_cycle;Max_cycle;Signal;HPM_P1;HPM_P2
2023/09/02 00:00:49;;;;;;;20.42;12.77;;;16.80;99.90;;;;;;6270820;22;20436;-70
2023/09/02 00:03:35;;;;;;;18.90;11.65;;;16.70;99.90;;;;;;6271335;22;20414;-68
2023/09/02 00:06:21;;;;;;;20.80;12.35;;;16.70;99.90;;;;;;6273603;22;20501;-68
2023/09/02 00:09:06;;;;;;;22.48;13.43;;;16.70;99.90;;;;;;6272252;22;20445;-68
2023/09/02 00:11:52;;;;;;;17.50;12.43;;;16.60;99.90;;;;;;6271830;22;20010;-69
2023/09/02 00:14:38;;;;;;;16.77;11.57;;;16.60;99.90;;;;;;6272278;22;20353;-69
2023/09/02 00:17:24;;;;;;;20.05;12.30;;;16.60;99.90;;;;;;6272615;22;20554;-69
2023/09/02 00:20:11;;;;;;;19.60;13.38;;;16.60;99.90;;;;;;6250824;22;20524;-69
2023/09/02 00:22:57;;;;;;;21.83;14.27;;;16.60;99.90;;;;;;6269688;22;20460;-69
2023/09/02 00:25:43;;;;;;;20.88;13.35;;;16.50;99.90;;;;;;6272284;22;20015;-69
2023/09/02 00:28:29;;;;;;;20.08;12.65;;;16.60;99.90;;;;;;6270111;22;20008;-69
2023/09/02 00:31:14;;;;;;;19.77;14.68;;;16.60;99.90;;;;;;6272308;22;20047;-70
2023/09/02 00:34:00;;;;;;;18.27;13.35;;;16.50;99.90;;;;;;6269281;22;20026;-70
2023/09/02 00:36:46;;;;;;;18.98;13.40;;;16.50;99.90;;;;;;6270156;22;20493;-70
2023/09/02 00:39:32;;;;;;;17.38;12.40;;;16.50;99.90;;;;;;6271602;22;20023;-70
2023/09/02 00:42:19;;;;;;;18.20;12.63;;;16.50;99.90;;;;;;6271225;22;20104;-74
2023/09/02 00:45:06;;;;;;;23.90;14.10;;;16.50;99.90;;;;;;6269171;22;20022;-73
2023/09/02 00:47:53;;;;;;;24.27;14.75;;;16.40;99.90;;;;;;6268746;22;20460;-73
2023/09/02 00:50:39;;;;;;;20.58;13.32;;;16.40;99.90;;;;;;6274085;22;20445;-73
2023/09/02 00:53:25;;;;;;;19.00;14.40;;;16.40;99.90;;;;;;6249910;22;20012;-74
2023/09/02 00:56:15;;;;;;;18.02;12.75;;;16.40;99.90;;;;;;6270885;22;20010;-73
2023/09/02 00:59:04;;;;;;;22.00;14.32;;;16.30;99.90;;;;;;6270103;22;20532;-73
2023/09/02 01:01:50;;;;;;;19.65;13.80;;;16.30;99.90;;;;;;6268626;22;20045;-72
2023/09/02 01:04:36;;;;;;;18.90;13.57;;;16.30;99.90;;;;;;6268593;22;20011;-72
2023/09/02 01:07:24;;;;;;;20.85;14.00;;;16.30;99.90;;;;;;6270450;22;20441;-73
2023/09/02 01:10:10;;;;;;;19.20;13.43;;;16.30;99.90;;;;;;6270840;22;20018;-73
2023/09/02 01:12:56;;;;;;;18.90;13.25;;;16.30;99.90;;;;;;6272350;22;19999;-73
2023/09/02 01:15:42;;;;;;;21.92;13.38;;;16.30;99.90;;;;;;6270468;22;20008;-72
2023/09/02 01:18:28;;;;;;;19.60;13.27;;;16.30;99.90;;;;;;6272489;22;20019;-71
2023/09/02 01:21:41;;;;;;;26.10;14.68;;;16.20;99.90;;;;;;6271668;22;20015;-72
2023/09/02 01:24:39;;;;;;;25.20;14.80;;;16.20;99.90;;;;;;6271747;22;20101;-72
2023/09/02 01:27:32;;;;;;;21.42;14.18;;;16.20;99.90;;;;;;6271920;22;20413;-72
2023/09/02 01:30:21;;;;;;;20.90;14.68;;;16.20;99.90;;;;;;6269953;22;20266;-71
2023/09/02 01:33:09;;;;;;;22.95;13.68;;;16.20;99.90;;;;;;6269009;22;20011;-71
2023/09/02 01:35:58;;;;;;;20.17;13.57;;;16.20;99.90;;;;;;6269925;22;20015;-72
2023/09/02 01:38:44;;;;;;;20.17;14.05;;;16.20;99.90;;;;;;6248054;22;20016;-72
2023/09/02 01:41:31;;;;;;;20.52;13.52;;;16.20;99.90;;;;;;6267894;22;20015;-72
2023/09/02 01:44:18;;;;;;;17.85;13.02;;;16.20;99.90;;;;;;6250300;22;20012;-72
2023/09/02 01:47:04;;;;;;;20.70;13.88;;;16.10;99.90;;;;;;6248174;22;20142;-72
2023/09/02 01:49:51;;;;;;;19.65;13.95;;;16.10;99.90;;;;;;6269732;22;20008;-72
2023/09/02 01:52:38;;;;;;;20.85;13.65;;;16.10;99.90;;;;;;6269814;22;20007;-72
2023/09/02 01:55:25;;;;;;;21.10;13.52;;;16.10;99.90;;;;;;6267706;22;20285;-72
2023/09/02 01:58:11;;;;;;;18.08;13.30;;;16.10;99.90;;;;;;6268623;22;20453;-72
2023/09/02 02:00:58;;;;;;;20.48;14.07;;;16.10;99.90;;;;;;6274142;22;20011;-72
2023/09/02 02:04:15;;;;;;;20.77;13.82;;;16.10;99.90;;;;;;6249563;22;20011;-72
2023/09/02 02:07:05;;;;;;;19.70;13.52;;;16.00;99.90;;;;;;6273674;22;20011;-73
2023/09/02 02:09:57;;;;;;;19.50;13.70;;;16.00;99.90;;;;;;6272391;22;20016;-72
2023/09/02 02:12:43;;;;;;;18.13;13.20;;;16.00;99.90;;;;;;6269382;22;20011;-72
2023/09/02 02:15:29;;;;;;;19.88;14.13;;;16.00;99.90;;;;;;6274385;22;20035;-71
2023/09/02 02:18:15;;;;;;;22.38;14.60;;;16.00;99.90;;;;;;6274413;22;20000;-72
2023/09/02 02:21:05;;;;;;;22.13;15.43;;;16.00;99.90;;;;;;6273066;22;20016;-71
2023/09/02 02:23:51;;;;;;;22.15;15.27;;;16.00;99.90;;;;;;6273509;22;20012;-71
2023/09/02 02:26:37;;;;;;;22.10;15.77;;;15.90;99.90;;;;;;6274307;22;20324;-72
2023/09/02 02:29:23;;;;;;;21.00;14.50;;;15.90;99.90;;;;;;6271598;22;20018;-72
2023/09/02 02:32:09;;;;;;;21.60;14.70;;;15.90;99.90;;;;;;6273778;22;20073;-72
2023/09/02 02:34:55;;;;;;;21.50;13.80;;;15.90;99.90;;;;;;6274069;22;20361;-72
2023/09/02 02:37:41;;;;;;;22.05;15.27;;;15.80;99.90;;;;;;6272653;22;20011;-72
2023/09/02 02:40:27;;;;;;;21.67;15.05;;;15.80;99.90;;;;;;6250259;22;20016;-72
2023/09/02 02:43:13;;;;;;;20.42;15.18;;;15.80;99.90;;;;;;6273615;22;20434;-72
2023/09/02 02:45:59;;;;;;;20.42;13.93;;;15.80;99.90;;;;;;6273039;22;20437;-72
2023/09/02 02:48:44;;;;;;;19.30;13.60;;;15.80;99.90;;;;;;6274027;22;20019;-72
2023/09/02 02:51:30;;;;;;;21.25;15.73;;;15.80;99.90;;;;;;6275824;22;20015;-74
2023/09/02 02:54:16;;;;;;;24.00;15.23;;;15.80;99.90;;;;;;6275363;22;20019;-72
2023/09/02 02:57:03;;;;;;;19.15;14.05;;;15.80;99.90;;;;;;6273676;22;20087;-73
2023/09/02 02:59:51;;;;;;;20.25;14.73;;;15.80;99.90;;;;;;6272005;22;20023;-73
2023/09/02 03:02:37;;;;;;;19.80;14.63;;;15.80;99.90;;;;;;6252317;22;20011;-73
2023/09/02 03:05:23;;;;;;;23.40;14.93;;;15.80;99.90;;;;;;6274500;22;20027;-73
2023/09/02 03:08:10;;;;;;;24.48;14.95;;;15.80;99.90;;;;;;6273186;22;20095;-73
2023/09/02 03:11:00;;;;;;;20.08;14.77;;;15.80;99.90;;;;;;6248840;22;20012;-73
2023/09/02 03:13:46;;;;;;;22.40;14.98;;;15.80;99.90;;;;;;6273377;22;20341;-73
2023/09/02 03:16:32;;;;;;;22.38;15.07;;;15.70;99.90;;;;;;6270811;22;20141;-72
2023/09/02 03:19:18;;;;;;;22.35;14.18;;;15.80;99.90;;;;;;6273175;22;20027;-72
2023/09/02 03:22:04;;;;;;;20.27;14.52;;;15.70;99.90;;;;;;6272355;22;20047;-72
2023/09/02 03:24:53;;;;;;;19.67;13.50;;;15.70;99.90;;;;;;6272151;22;20015;-71
2023/09/02 03:27:40;;;;;;;22.52;15.57;;;15.70;99.90;;;;;;6272920;22;20012;-72
2023/09/02 03:30:26;;;;;;;21.98;15.35;;;15.70;99.90;;;;;;6271862;22;20008;-73
2023/09/02 03:33:14;;;;;;;19.65;13.93;;;15.70;99.90;;;;;;6273779;22;20012;-74
2023/09/02 03:36:01;;;;;;;22.48;14.30;;;15.60;99.90;;;;;;6272081;22;20458;-72
2023/09/02 03:38:47;;;;;;;20.40;16.20;;;15.60;99.90;;;;;;6271765;22;20112;-72
2023/09/02 03:41:37;;;;;;;22.13;14.40;;;15.60;99.90;;;;;;6271461;22;20003;-72
2023/09/02 03:44:23;;;;;;;20.92;14.15;;;15.60;99.90;;;;;;6249702;22;20044;-72
2023/09/02 03:47:09;;;;;;;20.45;15.20;;;15.60;99.90;;;;;;6271501;22;20010;-72
2023/09/02 03:49:54;;;;;;;18.55;14.02;;;15.60;99.90;;;;;;6272526;22;20011;-72
2023/09/02 03:52:40;;;;;;;18.42;13.70;;;15.60;99.90;;;;;;6272500;22;20012;-73
2023/09/02 03:55:26;;;;;;;20.05;14.02;;;15.60;99.90;;;;;;6252640;22;20040;-72
2023/09/02 03:58:12;;;;;;;18.13;13.60;;;15.60;99.90;;;;;;6272135;22;20372;-72
2023/09/02 04:00:59;;;;;;;20.08;14.30;;;15.60;99.90;;;;;;6273649;22;20270;-70
2023/09/02 04:03:45;;;;;;;20.13;13.63;;;15.60;99.90;;;;;;6270535;22;20019;-70
2023/09/02 04:06:30;;;;;;;18.98;14.07;;;15.60;99.90;;;;;;6272636;22;20014;-70
2023/09/02 04:09:16;;;;;;;19.95;13.98;;;15.60;99.90;;;;;;6271722;22;20456;-70
2023/09/02 04:12:03;;;;;;;21.63;13.70;;;15.50;99.90;;;;;;6272430;22;20007;-74
2023/09/02 04:14:50;;;;;;;22.40;15.07;;;15.50;99.90;;;;;;6272075;22;20011;-73
2023/09/02 04:17:36;;;;;;;19.45;13.65;;;15.50;99.90;;;;;;6270325;22;20511;-73
2023/09/02 04:20:22;;;;;;;19.63;13.88;;;15.50;99.90;;;;;;6271507;22;20066;-71
2023/09/02 04:23:08;;;;;;;17.13;12.80;;;15.50;99.90;;;;;;6272681;22;20007;-71
2023/09/02 04:25:55;;;;;;;16.50;11.98;;;15.50;99.90;;;;;;6272467;22;20023;-72
2023/09/02 04:28:44;;;;;;;17.35;12.77;;;15.50;99.90;;;;;;6268974;22;20429;-72
2023/09/02 04:31:30;;;;;;;19.00;13.07;;;15.50;99.90;;;;;;6272279;22;20077;-71
2023/09/02 04:34:16;;;;;;;17.23;12.18;;;15.50;99.90;;;;;;6271067;22;20065;-71
2023/09/02 04:37:02;;;;;;;16.70;12.63;;;15.50;99.90;;;;;;6271736;22;20008;-71
2023/09/02 04:39:48;;;;;;;19.50;12.25;;;15.50;99.90;;;;;;6270360;22;20023;-70
2023/09/02 04:42:34;;;;;;;15.93;12.15;;;15.50;99.90;;;;;;6270965;22;20105;-70
2023/09/02 04:45:20;;;;;;;18.98;12.93;;;15.50;99.90;;;;;;6272019;22;20518;-71
2023/09/02 04:48:08;;;;;;;18.20;13.15;;;15.50;99.90;;;;;;6271564;22;20025;-71
2023/09/02 04:50:54;;;;;;;20.42;12.77;;;15.50;99.90;;;;;;6270114;22;20019;-71
2023/09/02 04:53:40;;;;;;;19.30;11.70;;;15.50;99.90;;;;;;6269158;22;20362;-70
2023/09/02 04:56:26;;;;;;;16.73;12.50;;;15.50;99.90;;;;;;6271398;22;20587;-70
2023/09/02 04:59:12;;;;;;;18.75;12.85;;;15.50;99.90;;;;;;6272518;22;20101;-70
2023/09/02 05:01:58;;;;;;;16.65;12.50;;;15.60;99.90;;;;;;6271561;22;20014;-71
2023/09/02 05:04:44;;;;;;;17.02;12.27;;;15.60;99.90;;;;;;6272622;22;20461;-71
2023/09/02 05:07:30;;;;;;;16.98;11.77;;;15.60;99.90;;;;;;6271913;22;20012;-71
2023/09/02 05:10:16;;;;;;;15.57;12.00;;;15.60;99.90;;;;;;6272831;22;20382;-70
2023/09/02 05:13:02;;;;;;;19.75;12.57;;;15.70;99.90;;;;;;6269381;22;20015;-71
2023/09/02 05:15:51;;;;;;;16.92;11.13;;;15.70;99.90;;;;;;6272641;22;20081;-71
2023/09/02 05:18:37;;;;;;;17.63;12.02;;;15.80;99.90;;;;;;6270481;22;20022;-71
2023/09/02 05:21:23;;;;;;;18.33;12.15;;;15.80;99.90;;;;;;6271767;22;20413;-71
2023/09/02 05:24:09;;;;;;;17.67;12.18;;;15.80;99.90;;;;;;6270331;22;20094;-70
2023/09/02 05:26:55;;;;;;;17.60;12.38;;;15.90;99.90;;;;;;6271175;22;20342;-69
2023/09/02 05:29:41;;;;;;;13.00;10.70;;;16.00;99.90;;;;;;6271482;22;20007;-70
2023/09/02 05:32:27;;;;;;;17.42;11.77;;;16.00;99.90;;;;;;6249085;22;20004;-69
2023/09/02 05:35:13;;;;;;;18.63;11.63;;;16.00;99.90;;;;;;6268631;22;20027;-69
2023/09/02 05:37:59;;;;;;;17.52;12.68;;;16.10;99.90;;;;;;6271670;22;20008;-69
2023/09/02 05:40:45;;;;;;;14.30;10.60;;;16.20;99.90;;;;;;6270853;22;20072;-70
2023/09/02 05:43:30;;;;;;;14.32;10.18;;;16.20;99.90;;;;;;6271272;22;20011;-70
2023/09/02 05:46:16;;;;;;;14.80;10.07;;;16.30;99.90;;;;;;6271886;22;20022;-69
2023/09/02 05:49:03;;;;;;;17.77;12.65;;;16.30;99.90;;;;;;6271258;22;20492;-70
2023/09/02 05:51:49;;;;;;;19.98;10.57;;;16.40;99.90;;;;;;6266501;22;20070;-70
2023/09/02 05:54:34;;;;;;;15.20;10.57;;;16.40;99.90;;;;;;6271422;22;20066;-70
2023/09/02 05:57:20;;;;;;;15.52;10.90;;;16.50;99.90;;;;;;6270390;22;20016;-70
2023/09/02 06:00:07;;;;;;;16.65;10.68;;;16.50;99.90;;;;;;6272940;22;20456;-70
2023/09/02 06:02:53;;;;;;;17.38;9.90;;;16.50;99.90;;;;;;6273738;22;20008;-70
2023/09/02 06:05:39;;;;;;;15.10;9.07;;;16.60;99.90;;;;;;6270560;22;20012;-70
2023/09/02 06:08:25;;;;;;;13.82;9.07;;;16.60;99.90;;;;;;6271366;22;20015;-70
2023/09/02 06:11:11;;;;;;;13.38;8.82;;;16.70;99.90;;;;;;6248621;22;20109;-70
2023/09/02 06:13:56;;;;;;;17.35;9.45;;;16.70;99.90;;;;;;6250233;22;20396;-75
2023/09/02 06:16:42;;;;;;;13.82;8.77;;;16.80;99.90;;;;;;6268874;22;20258;-70
2023/09/02 06:19:28;;;;;;;13.85;8.60;;;16.90;99.90;;;;;;6271392;22;20027;-70
2023/09/02 06:22:14;;;;;;;16.13;7.95;;;16.90;99.90;;;;;;6270511;22;20016;-70
2023/09/02 06:25:00;;;;;;;13.43;8.45;;;17.00;99.90;;;;;;6267093;22;20027;-69
2023/09/02 06:27:47;;;;;;;15.48;8.80;;;17.10;99.90;;;;;;6250026;22;20015;-69
2023/09/02 06:30:35;;;;;;;12.40;7.72;;;17.10;99.90;;;;;;6271924;22;20024;-69
2023/09/02 06:33:23;;;;;;;9.63;7.82;;;17.10;99.90;;;;;;6271950;22;20062;-69
2023/09/02 06:36:16;;;;;;;13.02;7.72;;;17.20;99.90;;;;;;6269241;22;20030;-69
2023/09/02 06:39:02;;;;;;;13.30;7.70;;;17.30;99.90;;;;;;6269410;22;20106;-69
2023/09/02 06:41:48;;;;;;;13.15;7.18;;;17.30;99.90;;;;;;6270166;22;20000;-70
2023/09/02 06:44:34;;;;;;;10.13;6.80;;;17.40;99.90;;;;;;6270300;22;20420;-70
2023/09/02 06:47:20;;;;;;;17.75;8.20;;;17.40;99.90;;;;;;6250604;22;20008;-70
2023/09/02 06:50:06;;;;;;;10.02;6.70;;;17.50;99.90;;;;;;6272732;22;20007;-70
2023/09/02 06:52:52;;;;;;;10.57;7.28;;;17.60;99.90;;;;;;6271718;22;20011;-70
2023/09/02 06:55:38;;;;;;;11.18;7.43;;;17.60;99.90;;;;;;6269943;22;20441;-70
2023/09/02 06:58:24;;;;;;;11.00;6.82;;;17.60;99.90;;;;;;6271148;22;20095;-67
2023/09/02 07:01:23;;;;;;;9.55;6.03;;;17.70;99.90;;;;;;6272671;22;20488;-71
2023/09/02 07:04:09;;;;;;;14.27;7.28;;;17.70;99.90;;;;;;6270688;22;20016;-72
2023/09/02 07:06:55;;;;;;;10.75;7.32;;;17.80;99.90;;;;;;6271455;22;20018;-70
2023/09/02 07:09:40;;;;;;;10.75;6.45;;;17.90;99.90;;;;;;6273176;22;20011;-72
2023/09/02 07:12:27;;;;;;;8.48;5.95;;;18.00;99.90;;;;;;6271796;22;20008;-72
2023/09/02 07:15:13;;;;;;;9.52;6.50;;;18.00;99.90;;;;;;6272637;22;20230;-72
2023/09/02 07:17:59;;;;;;;9.30;5.38;;;18.10;99.90;;;;;;6270038;22;20011;-71
2023/09/02 07:20:45;;;;;;;7.72;4.32;;;18.10;99.90;;;;;;6271668;22;20090;-75
2023/09/02 07:23:33;;;;;;;6.53;4.70;;;18.20;99.90;;;;;;6272475;22;20329;-72
2023/09/02 07:26:19;;;;;;;7.10;4.75;;;18.20;99.90;;;;;;6250342;22;20004;-70
2023/09/02 07:29:06;;;;;;;7.20;4.38;;;18.30;99.90;;;;;;6273162;22;20413;-71
2023/09/02 07:31:52;;;;;;;7.30;4.47;;;18.30;99.90;;;;;;6270680;22;20007;-70
2023/09/02 07:34:41;;;;;;;8.48;4.93;;;18.40;99.90;;;;;;6271326;22;20453;-71
2023/09/02 07:37:27;;;;;;;9.98;5.03;;;18.40;99.80;;;;;;6270902;22;20069;-71
2023/09/02 07:40:13;;;;;;;13.20;6.78;;;18.50;99.90;;;;;;6270906;22;20078;-71
2023/09/02 07:43:02;;;;;;;8.85;5.97;;;18.50;99.90;;;;;;6270017;22;20012;-72
2023/09/02 07:45:48;;;;;;;11.48;6.15;;;18.60;99.90;;;;;;6270729;22;20042;-70
2023/09/02 07:48:34;;;;;;;10.60;6.22;;;18.70;99.90;;;;;;6272999;22;20528;-70
2023/09/02 07:51:20;;;;;;;8.70;5.85;;;18.70;99.80;;;;;;6270134;22;20448;-72
2023/09/02 07:54:06;;;;;;;8.80;5.10;;;18.80;99.80;;;;;;6271647;22;20101;-73
2023/09/02 07:56:51;;;;;;;9.07;5.50;;;18.80;99.70;;;;;;6272218;22;20007;-72
2023/09/02 07:59:38;;;;;;;6.97;5.03;;;18.90;99.10;;;;;;6272181;22;20077;-71
2023/09/02 08:02:24;;;;;;;6.97;4.28;;;18.90;98.90;;;;;;6272165;22;20341;-72
2023/09/02 08:05:10;;;;;;;7.88;4.60;;;18.90;98.70;;;;;;6269359;22;20011;-72
2023/09/02 08:07:56;;;;;;;7.03;3.83;;;19.00;98.50;;;;;;6268908;22;20012;-70
2023/09/02 08:10:42;;;;;;;7.75;4.22;;;19.00;98.10;;;;;;6272436;22;20073;-74
2023/09/02 08:13:28;;;;;;;7.57;3.55;;;19.10;98.00;;;;;;6250242;22;20012;-74
2023/09/02 08:16:14;;;;;;;5.95;3.72;;;19.10;97.80;;;;;;6272076;22;20065;-74
2023/09/02 08:19:00;;;;;;;6.45;3.70;;;19.20;97.70;;;;;;6271813;22;20028;-74
2023/09/02 08:21:46;;;;;;;7.10;3.35;;;19.20;97.60;;;;;;6271389;22;20007;-74
2023/09/02 08:24:32;;;;;;;5.00;3.22;;;19.30;97.60;;;;;;6270485;22;20074;-74
2023/09/02 08:27:18;;;;;;;4.78;2.80;;;19.30;97.40;;;;;;6271512;22;20012;-74
2023/09/02 08:30:04;;;;;;;4.32;3.10;;;19.40;97.30;;;;;;6271872;22;20011;-75
2023/09/02 08:32:51;;;;;;;4.10;2.40;;;19.40;97.10;;;;;;6269952;22;20079;-74
2023/09/02 08:35:37;;;;;;;6.30;2.50;;;19.40;96.80;;;;;;6271136;22;20023;-74
2023/09/02 08:38:23;;;;;;;4.65;2.67;;;19.50;96.80;;;;;;6269991;22;20093;-75
2023/09/02 08:41:16;;;;;;;8.52;2.97;;;19.50;96.40;;;;;;6269803;22;20019;-73
2023/09/02 08:44:03;;;;;;;3.75;2.53;;;19.60;96.20;;;;;;6272947;22;20141;-73
2023/09/02 08:46:52;;;;;;;3.22;2.63;;;19.60;95.60;;;;;;6271428;22;20318;-74
2023/09/02 08:49:38;;;;;;;4.13;2.60;;;19.70;95.80;;;;;;6270630;22;20404;-73
2023/09/02 08:52:25;;;;;;;4.20;2.60;;;19.70;95.40;;;;;;6270814;22;20356;-73
2023/09/02 08:55:13;;;;;;;4.40;2.53;;;19.80;95.20;;;;;;6272213;22;20004;-73
2023/09/02 08:57:59;;;;;;;4.82;2.72;;;19.90;95.20;;;;;;6248799;22;20016;-73
2023/09/02 09:00:47;;;;;;;3.75;2.10;;;19.90;94.80;;;;;;6271053;22;20015;-72
2023/09/02 09:03:33;;;;;;;5.82;2.45;;;20.00;94.80;;;;;;6272040;22;20016;-72
2023/09/02 09:06:23;;;;;;;4.68;2.85;;;20.20;94.80;;;;;;6276783;22;20062;-73
2023/09/02 09:09:10;;;;;;;4.93;2.45;;;20.20;94.80;;;;;;6273708;22;20388;-73
2023/09/02 09:11:58;;;;;;;4.20;2.70;;;20.30;94.70;;;;;;6250332;22;20094;-72
2023/09/02 09:14:46;;;;;;;3.10;2.25;;;20.40;94.60;;;;;;6272610;22;20015;-73
2023/09/02 09:17:32;;;;;;;4.50;2.33;;;20.50;94.60;;;;;;6270551;22;20008;-73
2023/09/02 09:20:18;;;;;;;5.40;2.63;;;20.60;94.20;;;;;;6269422;22;20015;-73
2023/09/02 09:23:08;;;;;;;3.78;2.42;;;20.60;93.90;;;;;;6268307;22;20008;-73
2023/09/02 09:25:54;;;;;;;4.65;2.53;;;20.80;93.80;;;;;;6272455;22;20015;-76
2023/09/02 09:28:58;;;;;;;4.15;2.42;;;20.90;93.90;;;;;;6269008;22;20007;-73
2023/09/02 09:31:44;;;;;;;5.22;2.08;;;21.00;93.70;;;;;;6268590;22;20467;-73
2023/09/02 09:34:38;;;;;;;3.15;2.10;;;21.00;93.40;;;;;;6267912;22;20023;-72
2023/09/02 09:37:24;;;;;;;5.18;2.40;;;21.10;93.40;;;;;;6248530;22;20011;-72
2023/09/02 09:40:27;;;;;;;4.68;2.42;;;21.20;93.20;;;;;;6269274;22;20516;-73
2023/09/02 09:43:20;;;;;;;3.15;2.08;;;21.30;93.00;;;;;;6270522;22;20556;-71
2023/09/02 09:46:06;;;;;;;5.25;2.30;;;21.40;92.80;;;;;;6269476;22;20011;-71
2023/09/02 09:48:53;;;;;;;2.67;1.90;;;21.50;92.80;;;;;;6270995;22;20011;-69
2023/09/02 09:51:39;;;;;;;3.60;2.10;;;21.50;92.30;;;;;;6248015;22;20007;-67
2023/09/02 09:54:40;;;;;;;5.68;2.35;;;21.60;92.30;;;;;;6273520;22;20008;-67
2023/09/02 09:57:38;;;;;;;6.05;2.40;;;21.80;92.30;;;;;;6269165;22;20746;-67
2023/09/02 10:00:28;;;;;;;3.63;1.95;;;21.90;92.20;;;;;;6269958;22;20449;-74
2023/09/02 10:03:14;;;;;;;4.28;2.75;;;22.00;92.10;;;;;;6268735;22;20011;-74
2023/09/02 10:06:01;;;;;;;4.50;2.35;;;22.10;92.10;;;;;;6270429;22;20769;-75
2023/09/02 10:08:56;;;;;;;4.35;2.28;;;22.30;92.10;;;;;;6248901;22;20011;-75
2023/09/02 10:11:43;;;;;;;;;;;22.40;91.80;;;;;;6271065;22;20008;-75
2023/09/02 10:14:29;;;;;;;3.53;2.10;;;22.50;92.40;;;;;;6268855;22;19956;-74
2023/09/02 10:17:16;;;;;;;3.08;2.28;;;22.50;91.80;;;;;;6250726;22;20082;-75
2023/09/02 10:20:02;;;;;;;3.33;2.55;;;22.60;91.70;;;;;;6269180;22;20027;-75
2023/09/02 10:30:25;;;;;;;6.65;2.80;;;22.60;91.40;;;;;;6263098;22;20935;-76
2023/09/02 10:33:43;;;;;;;6.82;2.33;;;22.80;91.60;;;;;;6271448;22;20008;-76
2023/09/02 10:36:33;;;;;;;5.75;2.00;;;22.80;91.20;;;;;;6269863;22;20019;-74
2023/09/02 10:39:38;;;;;;;4.63;2.20;;;22.90;91.00;;;;;;6271721;22;20020;-76
2023/09/02 10:42:26;;;;;;;5.28;2.42;;;22.90;91.00;;;;;;6270789;22;20015;-76
2023/09/02 10:45:12;;;;;;;2.88;1.80;;;23.00;91.10;;;;;;6271287;22;20012;-75
2023/09/02 10:47:59;;;;;;;4.90;2.25;;;23.00;90.80;;;;;;6269436;22;20012;-76
2023/09/02 10:50:46;;;;;;;4.47;2.08;;;23.00;90.60;;;;;;6271835;22;20019;-76
2023/09/02 10:54:00;;;;;;;2.63;1.90;;;22.90;91.00;;;;;;6270939;22;20008;-77
2023/09/02 10:56:46;;;;;;;4.22;2.22;;;22.90;90.80;;;;;;6273004;22;20011;-77
2023/09/02 10:59:32;;;;;;;2.40;1.70;;;22.80;90.70;;;;;;6271025;22;20094;-77
2023/09/02 11:02:37;;;;;;;4.60;1.70;;;22.80;90.50;;;;;;6272043;22;20357;-75
2023/09/02 11:05:27;;;;;;;3.40;1.83;;;22.70;90.70;;;;;;6271563;22;20019;-77
2023/09/02 11:08:46;;;;;;;5.47;2.40;;;22.70;90.50;;;;;;6270919;22;20043;-79
2023/09/02 11:12:07;;;;;;;2.88;1.67;;;22.60;90.60;;;;;;6269956;22;20341;-79
2023/09/02 11:15:08;;;;;;;5.03;1.67;;;22.60;90.70;;;;;;6270680;22;20445;-77
2023/09/02 11:17:54;;;;;;;3.60;2.08;;;22.60;91.00;;;;;;6270525;22;20023;-78
2023/09/02 11:20:49;;;;;;;2.63;1.83;;;22.70;90.80;;;;;;6272375;22;20098;-71
2023/09/02 11:23:35;;;;;;;3.53;1.95;;;22.70;90.80;;;;;;6271490;22;20008;-71
2023/09/02 11:26:21;;;;;;;3.92;2.05;;;22.80;90.70;;;;;;6273251;22;20007;-72
2023/09/02 11:29:27;;;;;;;3.58;1.80;;;22.80;90.60;;;;;;6272509;22;20011;-71
2023/09/02 11:32:13;;;;;;;3.80;1.38;;;22.90;90.70;;;;;;6271249;22;20069;-72
2023/09/02 11:34:59;;;;;;;3.10;1.85;;;22.90;90.60;;;;;;6269988;22;20090;-73
2023/09/02 11:37:45;;;;;;;4.97;2.17;;;23.00;90.40;;;;;;6270720;22;20007;-72
2023/09/02 11:40:31;;;;;;;3.45;2.33;;;23.10;90.30;;;;;;6268900;22;20019;-71
2023/09/02 11:43:18;;;;;;;4.82;1.92;;;23.20;90.40;;;;;;6270785;22;20015;-72
2023/09/02 11:46:04;;;;;;;4.70;2.13;;;23.20;90.50;;;;;;6270731;22;20015;-72
2023/09/02 11:48:50;;;;;;;5.43;2.03;;;23.00;89.50;;;;;;6270712;22;20004;-78
2023/09/02 11:51:36;;;;;;;6.57;2.63;;;22.80;90.00;;;;;;6272324;22;20014;-74
2023/09/02 11:54:22;;;;;;;5.45;2.53;;;22.80;89.90;;;;;;6272397;22;20007;-74
2023/09/02 11:57:08;;;;;;;5.53;2.13;;;22.60;89.60;;;;;;6272303;22;20007;-76
2023/09/02 11:59:54;;;;;;;3.50;1.98;;;22.50;89.40;;;;;;6272736;22;20055;-75
2023/09/02 12:02:43;;;;;;;5.53;1.98;;;22.40;89.80;;;;;;6271715;22;20008;-81
2023/09/02 12:05:30;;;;;;;4.10;2.20;;;22.30;89.70;;;;;;6270904;22;20014;-76
2023/09/02 12:08:17;;;;;;;4.45;2.10;;;22.30;90.10;;;;;;6272388;22;20447;-73
2023/09/02 12:11:03;;;;;;;5.03;2.33;;;22.30;90.30;;;;;;6271820;22;20468;-78
2023/09/02 12:13:49;;;;;;;5.53;2.55;;;22.30;90.10;;;;;;6275485;22;20012;-78
2023/09/02 12:16:37;;;;;;;4.80;2.58;;;22.40;90.30;;;;;;6276837;22;20010;-75
2023/09/02 12:19:24;;;;;;;4.07;2.53;;;22.50;90.40;;;;;;6296614;22;20027;-78
2023/09/02 12:22:10;;;;;;;6.40;2.53;;;22.80;90.20;;;;;;6275021;22;20057;-78
2023/09/02 12:24:56;;;;;;;3.67;2.28;;;22.90;90.00;;;;;;6277927;22;20011;-78
2023/09/02 12:27:42;;;;;;;4.70;2.13;;;23.00;89.20;;;;;;6270723;22;20345;-78
2023/09/02 12:30:30;;;;;;;8.70;2.50;;;23.20;89.20;;;;;;6272705;22;20069;-81
2023/09/02 12:33:16;;;;;;;5.55;2.75;;;23.30;88.80;;;;;;6271288;22;20015;-78
2023/09/02 12:36:02;;;;;;;7.15;2.30;;;23.40;88.30;;;;;;6248479;22;20024;-78
2023/09/02 12:38:52;;;;;;;4.00;2.42;;;23.50;87.40;;;;;;6273084;22;20075;-78
2023/09/02 12:41:39;;;;;;;5.18;2.83;;;23.40;87.00;;;;;;6268855;22;20008;-77
2023/09/02 12:44:25;;;;;;;4.47;2.75;;;23.40;87.40;;;;;;6269597;22;20015;-78
2023/09/02 12:47:11;;;;;;;4.75;2.40;;;23.40;87.20;;;;;;6268393;22;20517;-78
2023/09/02 12:49:58;;;;;;;8.48;2.22;;;23.40;87.10;;;;;;6270026;22;20033;-77
2023/09/02 12:52:56;;;;;;;3.78;2.20;;;23.30;87.10;;;;;;6271507;22;20008;-78
2023/09/02 12:55:44;;;;;;;3.10;1.77;;;23.30;87.20;;;;;;6271426;22;20126;-76
2023/09/02 12:58:30;;;;;;;6.20;2.25;;;23.20;87.30;;;;;;6270817;22;20000;-77
2023/09/02 13:01:16;;;;;;;3.67;1.73;;;23.10;87.60;;;;;;6270488;22;20012;-78
2023/09/02 13:04:02;;;;;;;3.10;1.92;;;23.00;87.90;;;;;;6269121;22;20088;-76
2023/09/02 13:06:48;;;;;;;4.05;2.35;;;22.90;88.30;;;;;;6270985;22;20008;-77
2023/09/02 13:09:34;;;;;;;3.38;2.78;;;22.90;88.80;;;;;;6269943;22;20047;-76
2023/09/02 13:12:20;;;;;;;4.03;2.28;;;22.80;89.20;;;;;;6271638;22;20008;-68
2023/09/02 13:15:07;;;;;;;4.80;2.42;;;22.70;90.60;;;;;;6268747;22;20072;-69
2023/09/02 13:17:53;;;;;;;9.52;2.72;;;22.60;90.30;;;;;;6269117;22;20090;-66
2023/09/02 13:20:39;;;;;;;4.40;2.30;;;22.60;90.70;;;;;;6268325;22;20061;-69
2023/09/02 13:23:26;;;;;;;4.05;2.03;;;22.60;90.90;;;;;;6269326;22;20008;-69
2023/09/02 13:26:16;;;;;;;4.97;2.45;;;22.50;91.00;;;;;;6271123;22;20012;-70
2023/09/02 13:29:04;;;;;;;3.22;2.10;;;22.60;90.60;;;;;;6273110;22;20004;-69
2023/09/02 13:31:51;;;;;;;5.43;2.63;;;22.60;90.50;;;;;;6268555;22;20015;-69
2023/09/02 13:34:39;;;;;;;3.53;2.15;;;22.70;90.50;;;;;;6271124;22;20027;-69
2023/09/02 13:37:26;;;;;;;5.43;2.33;;;22.70;90.50;;;;;;6268942;22;20007;-70
2023/09/02 13:40:15;;;;;;;3.15;2.00;;;22.70;90.50;;;;;;6271341;22;20024;-69
2023/09/02 13:43:20;;;;;;;4.97;2.25;;;22.70;90.50;;;;;;6268910;22;20012;-70
2023/09/02 13:46:07;;;;;;;4.35;2.40;;;22.70;90.50;;;;;;6267974;22;20122;-70
2023/09/02 13:48:53;;;;;;;4.30;2.42;;;22.80;90.50;;;;;;6268980;22;20082;-70
2023/09/02 13:51:39;;;;;;;5.25;2.55;;;22.80;90.50;;;;;;6270042;22;20008;-70
2023/09/02 13:54:26;;;;;;;4.50;2.50;;;22.90;90.30;;;;;;6270126;22;20015;-67
2023/09/02 13:57:14;;;;;;;5.03;2.65;;;22.90;90.50;;;;;;6274195;22;20318;-69
2023/09/02 14:00:04;;;;;;;3.35;2.40;;;23.00;90.40;;;;;;6271115;22;20073;-69
2023/09/02 14:02:50;;;;;;;5.75;2.20;;;23.00;90.40;;;;;;6272213;22;20026;-69
2023/09/02 14:05:36;;;;;;;9.18;2.88;;;23.00;90.50;;;;;;6270807;22;20018;-70
2023/09/02 14:08:48;;;;;;;6.63;4.53;;;23.00;90.60;;;;;;6272605;22;20014;-71
2023/09/02 14:11:34;;;;;;;6.43;4.15;;;23.10;90.70;;;;;;6275276;22;20084;-69
2023/09/02 14:14:21;;;;;;;4.35;2.33;;;23.10;90.50;;;;;;6250029;22;20007;-71
2023/09/02 14:17:07;;;;;;;3.20;2.05;;;23.10;90.50;;;;;;6273416;22;20066;-70
2023/09/02 14:19:53;;;;;;;6.70;2.75;;;23.10;90.40;;;;;;6270189;22;20047;-71
2023/09/02 14:22:38;;;;;;;4.32;2.53;;;23.10;90.40;;;;;;6271055;22;20011;-70
2023/09/02 14:25:24;;;;;;;3.35;2.28;;;23.10;90.30;;;;;;6251811;22;20012;-71
2023/09/02 14:28:11;;;;;;;4.82;2.38;;;23.10;90.50;;;;;;6252272;22;20008;-70
2023/09/02 14:30:57;;;;;;;4.35;2.70;;;23.10;90.60;;;;;;6273568;22;20090;-71